sensor_id;sensor_type;location;lat;lon;timestamp;pressure;altitude;pressure_sealevel;temperature
11424;BMP180;5768;51.476;7.210;2023-12-04T00:04:34;100052.00;;;6.30
11424;BMP180;5768;51.476;7.210;2023-12-04T00:09:37;100040.00;;;6.20
11424;BMP180;5768;51.476;7.210;2023-12-04T00:14:40;100024.00;;;6.10
11424;BMP180;5768;51.476;7.210;2023-12-04T00:19:42;100020.00;;;6.10
11424;BMP180;5768;51.476;7.210;2023-12-04T00:24:45;100024.00;;;6.10
11424;BMP180;5768;51.476;7.210;2023-12-04T00:29:48;100027.00;;;6.00
11424;BMP180;5768;51.476;7.210;2023-12-04T00:34:50;100016.00;;;6.10
11424;BMP180;5768;51.476;7.210;2023-12-04T00:39:54;100015.00;;;6.10
11424;BMP180;5768;51.476;7.210;2023-12-04T00:44:56;100005.00;;;6.10
11424;BMP180;5768;51.476;7.210;2023-12-04T00:49:58;100007.00;;;6.00
11424;BMP180;5768;51.476;7.210;2023-12-04T00:55:02;99996.00;;;6.10
11424;BMP180;5768;51.476;7.210;2023-12-04T01:00:06;99996.00;;;6.20
11424;BMP180;5768;51.476;7.210;2023-12-04T01:05:09;99986.00;;;6.20
11424;BMP180;5768;51.476;7.210;2023-12-04T01:10:12;99977.00;;;6.20
11424;BMP180;5768;51.476;7.210;2023-12-04T01:15:15;99968.00;;;6.10
11424;BMP180;5768;51.476;7.210;2023-12-04T01:20:18;99957.00;;;6.10
11424;BMP180;5768;51.476;7.210;2023-12-04T01:25:22;99949.00;;;6.10
11424;BMP180;5768;51.476;7.210;2023-12-04T01:30:24;99949.00;;;6.00
11424;BMP180;5768;51.476;7.210;2023-12-04T01:35:27;99942.00;;;5.90
11424;BMP180;5768;51.476;7.210;2023-12-04T01:40:30;99939.00;;;5.80
11424;BMP180;5768;51.476;7.210;2023-12-04T01:45:32;99926.00;;;5.90
11424;BMP180;5768;51.476;7.210;2023-12-04T01:50:36;99915.00;;;5.80
11424;BMP180;5768;51.476;7.210;2023-12-04T01:55:41;99914.00;;;5.90
11424;BMP180;5768;51.476;7.210;2023-12-04T02:00:44;99906.00;;;5.90
11424;BMP180;5768;51.476;7.210;2023-12-04T02:05:47;99899.00;;;6.00
11424;BMP180;5768;51.476;7.210;2023-12-04T02:10:51;99904.00;;;6.00
11424;BMP180;5768;51.476;7.210;2023-12-04T02:15:56;99903.00;;;6.10
11424;BMP180;5768;51.476;7.210;2023-12-04T02:21:01;99903.00;;;6.10
11424;BMP180;5768;51.476;7.210;2023-12-04T02:26:12;99904.00;;;6.20
11424;BMP180;5768;51.476;7.210;2023-12-04T02:31:18;99895.00;;;6.20
11424;BMP180;5768;51.476;7.210;2023-12-04T02:36:22;99887.00;;;6.20
11424;BMP180;5768;51.476;7.210;2023-12-04T02:41:27;99879.00;;;6.20
11424;BMP180;5768;51.476;7.210;2023-12-04T02:46:29;99883.00;;;6.20
11424;BMP180;5768;51.476;7.210;2023-12-04T02:51:31;99864.00;;;6.20
11424;BMP180;5768;51.476;7.210;2023-12-04T02:56:35;99860.00;;;6.20
11424;BMP180;5768;51.476;7.210;2023-12-04T03:01:37;99848.00;;;6.10
11424;BMP180;5768;51.476;7.210;2023-12-04T03:06:39;99848.00;;;6.10
11424;BMP180;5768;51.476;7.210;2023-12-04T03:11:44;99842.00;;;6.00
11424;BMP180;5768;51.476;7.210;2023-12-04T03:16:46;99847.00;;;6.00
11424;BMP180;5768;51.476;7.210;2023-12-04T03:21:48;99826.00;;;6.00
11424;BMP180;5768;51.476;7.210;2023-12-04T03:26:52;99821.00;;;6.10
11424;BMP180;5768;51.476;7.210;2023-12-04T03:31:54;99809.00;;;6.10
11424;BMP180;5768;51.476;7.210;2023-12-04T03:36:56;99807.00;;;6.10
11424;BMP180;5768;51.476;7.210;2023-12-04T03:42:00;99807.00;;;6.20
11424;BMP180;5768;51.476;7.210;2023-12-04T03:47:03;99802.00;;;6.20
11424;BMP180;5768;51.476;7.210;2023-12-04T03:52:05;99792.00;;;6.30
11424;BMP180;5768;51.476;7.210;2023-12-04T03:57:09;99786.00;;;6.30
11424;BMP180;5768;51.476;7.210;2023-12-04T04:02:11;99783.00;;;6.40
11424;BMP180;5768;51.476;7.210;2023-12-04T04:07:16;99787.00;;;6.40
11424;BMP180;5768;51.476;7.210;2023-12-04T04:12:20;99785.00;;;6.40
11424;BMP180;5768;51.476;7.210;2023-12-04T04:17:23;99774.00;;;6.50
11424;BMP180;5768;51.476;7.210;2023-12-04T04:22:26;99768.00;;;6.60
11424;BMP180;5768;51.476;7.210;2023-12-04T04:27:30;99761.00;;;6.50
11424;BMP180;5768;51.476;7.210;2023-12-04T04:32:32;99762.00;;;6.40
11424;BMP180;5768;51.476;7.210;2023-12-04T04:37:34;99759.00;;;6.40
11424;BMP180;5768;51.476;7.210;2023-12-04T04:42:38;99765.00;;;6.40
11424;BMP180;5768;51.476;7.210;2023-12-04T04:47:40;99749.00;;;6.30
11424;BMP180;5768;51.476;7.210;2023-12-04T04:52:43;99742.00;;;6.40
11424;BMP180;5768;51.476;7.210;2023-12-04T04:57:46;99742.00;;;6.40
11424;BMP180;5768;51.476;7.210;2023-12-04T05:02:49;99742.00;;;6.40
11424;BMP180;5768;51.476;7.210;2023-12-04T05:07:51;99738.00;;;6.40
11424;BMP180;5768;51.476;7.210;2023-12-04T05:12:54;99727.00;;;6.40
11424;BMP180;5768;51.476;7.210;2023-12-04T05:17:56;99723.00;;;6.40
11424;BMP180;5768;51.476;7.210;2023-12-04T05:22:59;99719.00;;;6.40
11424;BMP180;5768;51.476;7.210;2023-12-04T05:28:03;99721.00;;;6.40
11424;BMP180;5768;51.476;7.210;2023-12-04T05:33:05;99720.00;;;6.40
11424;BMP180;5768;51.476;7.210;2023-12-04T05:38:08;99721.00;;;6.40
11424;BMP180;5768;51.476;7.210;2023-12-04T05:43:11;99697.00;;;6.40
11424;BMP180;5768;51.476;7.210;2023-12-04T05:48:14;99704.00;;;6.30
11424;BMP180;5768;51.476;7.210;2023-12-04T05:53:16;99695.00;;;6.30
11424;BMP180;5768;51.476;7.210;2023-12-04T05:58:20;99706.00;;;6.30
11424;BMP180;5768;51.476;7.210;2023-12-04T06:03:22;99702.00;;;6.30
11424;BMP180;5768;51.476;7.210;2023-12-04T06:08:25;99711.00;;;6.30
11424;BMP180;5768;51.476;7.210;2023-12-04T06:13:28;99721.00;;;6.30
11424;BMP180;5768;51.476;7.210;2023-12-04T06:18:30;99723.00;;;6.30
11424;BMP180;5768;51.476;7.210;2023-12-04T06:23:33;99715.00;;;6.30
11424;BMP180;5768;51.476;7.210;2023-12-04T06:28:38;99706.00;;;6.30
11424;BMP180;5768;51.476;7.210;2023-12-04T06:33:41;99693.00;;;6.30
11424;BMP180;5768;51.476;7.210;2023-12-04T06:38:46;99683.00;;;6.30
11424;BMP180;5768;51.476;7.210;2023-12-04T06:43:51;99670.00;;;6.30
11424;BMP180;5768;51.476;7.210;2023-12-04T06:48:57;99658.00;;;6.30
11424;BMP180;5768;51.476;7.210;2023-12-04T06:54:01;99644.00;;;6.40
11424;BMP180;5768;51.476;7.210;2023-12-04T06:59:04;99637.00;;;6.30
11424;BMP180;5768;51.476;7.210;2023-12-04T07:04:06;99630.00;;;6.30
11424;BMP180;5768;51.476;7.210;2023-12-04T07:09:10;99624.00;;;6.30
11424;BMP180;5768;51.476;7.210;2023-12-04T07:14:14;99616.00;;;6.20
11424;BMP180;5768;51.476;7.210;2023-12-04T07:19:16;99615.00;;;6.20
11424;BMP180;5768;51.476;7.210;2023-12-04T07:24:19;99597.00;;;6.10
11424;BMP180;5768;51.476;7.210;2023-12-04T07:29:22;99608.00;;;6.20
11424;BMP180;5768;51.476;7.210;2023-12-04T07:34:24;99586.00;;;6.20
11424;BMP180;5768;51.476;7.210;2023-12-04T07:39:27;99582.00;;;6.20
11424;BMP180;5768;51.476;7.210;2023-12-04T07:44:31;99585.00;;;6.30
11424;BMP180;5768;51.476;7.210;2023-12-04T07:49:33;99565.00;;;6.40
11424;BMP180;5768;51.476;7.210;2023-12-04T07:54:35;99563.00;;;6.50
11424;BMP180;5768;51.476;7.210;2023-12-04T07:59:39;99563.00;;;6.50
11424;BMP180;5768;51.476;7.210;2023-12-04T08:04:41;99552.00;;;6.60
11424;BMP180;5768;51.476;7.210;2023-12-04T08:09:43;99529.00;;;6.60
11424;BMP180;5768;51.476;7.210;2023-12-04T08:14:47;99534.00;;;6.60
11424;BMP180;5768;51.476;7.210;2023-12-04T08:19:49;99534.00;;;6.60
11424;BMP180;5768;51.476;7.210;2023-12-04T08:24:51;99543.00;;;6.70
11424;BMP180;5768;51.476;7.210;2023-12-04T08:29:55;99538.00;;;6.80
11424;BMP180;5768;51.476;7.210;2023-12-04T08:34:57;99535.00;;;6.80
11424;BMP180;5768;51.476;7.210;2023-12-04T08:40:00;99552.00;;;6.90
11424;BMP180;5768;51.476;7.210;2023-12-04T08:45:06;99541.00;;;7.00
11424;BMP180;5768;51.476;7.210;2023-12-04T08:50:09;99542.00;;;7.00
11424;BMP180;5768;51.476;7.210;2023-12-04T08:55:12;99552.00;;;7.00
11424;BMP180;5768;51.476;7.210;2023-12-04T09:00:16;99539.00;;;7.10
11424;BMP180;5768;51.476;7.210;2023-12-04T09:05:19;99522.00;;;7.20
11424;BMP180;5768;51.476;7.210;2023-12-04T09:10:21;99521.00;;;7.30
11424;BMP180;5768;51.476;7.210;2023-12-04T09:15:25;99521.00;;;7.40
11424;BMP180;5768;51.476;7.210;2023-12-04T09:20:27;99535.00;;;7.50
11424;BMP180;5768;51.476;7.210;2023-12-04T09:25:29;99529.00;;;7.50
11424;BMP180;5768;51.476;7.210;2023-12-04T09:30:34;99521.00;;;7.60
11424;BMP180;5768;51.476;7.210;2023-12-04T09:35:37;99501.00;;;7.70
11424;BMP180;5768;51.476;7.210;2023-12-04T09:40:41;99496.00;;;7.80
11424;BMP180;5768;51.476;7.210;2023-12-04T09:45:45;99486.00;;;7.90
11424;BMP180;5768;51.476;7.210;2023-12-04T09:50:48;99483.00;;;8.10
11424;BMP180;5768;51.476;7.210;2023-12-04T09:55:51;99477.00;;;8.10
11424;BMP180;5768;51.476;7.210;2023-12-04T10:00:55;99474.00;;;8.20
11424;BMP180;5768;51.476;7.210;2023-12-04T10:05:59;99465.00;;;8.20
11424;BMP180;5768;51.476;7.210;2023-12-04T10:11:01;99468.00;;;8.20
11424;BMP180;5768;51.476;7.210;2023-12-04T10:16:06;99468.00;;;8.30
11424;BMP180;5768;51.476;7.210;2023-12-04T10:21:09;99459.00;;;8.30
11424;BMP180;5768;51.476;7.210;2023-12-04T10:26:15;99434.00;;;8.30
11424;BMP180;5768;51.476;7.210;2023-12-04T10:31:19;99430.00;;;8.30
11424;BMP180;5768;51.476;7.210;2023-12-04T10:36:21;99421.00;;;8.50
11424;BMP180;5768;51.476;7.210;2023-12-04T10:41:24;99415.00;;;8.50
11424;BMP180;5768;51.476;7.210;2023-12-04T10:46:29;99408.00;;;8.50
11424;BMP180;5768;51.476;7.210;2023-12-04T10:51:33;99406.00;;;8.50
11424;BMP180;5768;51.476;7.210;2023-12-04T10:56:38;99393.00;;;8.40
11424;BMP180;5768;51.476;7.210;2023-12-04T11:01:46;99392.00;;;8.40
11424;BMP180;5768;51.476;7.210;2023-12-04T11:06:53;99382.00;;;8.50
11424;BMP180;5768;51.476;7.210;2023-12-04T11:12:02;99380.00;;;8.50
11424;BMP180;5768;51.476;7.210;2023-12-04T11:17:10;99379.00;;;8.40
11424;BMP180;5768;51.476;7.210;2023-12-04T11:22:15;99384.00;;;8.40
11424;BMP180;5768;51.476;7.210;2023-12-04T11:27:22;99379.00;;;8.50
11424;BMP180;5768;51.476;7.210;2023-12-04T11:32:29;99392.00;;;8.40
11424;BMP180;5768;51.476;7.210;2023-12-04T11:37:31;99364.00;;;8.40
11424;BMP180;5768;51.476;7.210;2023-12-04T11:42:35;99364.00;;;8.40
11424;BMP180;5768;51.476;7.210;2023-12-04T11:47:51;99365.00;;;8.40
11424;BMP180;5768;51.476;7.210;2023-12-04T11:52:54;99373.00;;;8.40
11424;BMP180;5768;51.476;7.210;2023-12-04T11:57:57;99348.00;;;8.50
11424;BMP180;5768;51.476;7.210;2023-12-04T12:03:06;99347.00;;;8.50
11424;BMP180;5768;51.476;7.210;2023-12-04T12:08:10;99363.00;;;8.60
11424;BMP180;5768;51.476;7.210;2023-12-04T12:13:15;99354.00;;;8.60
11424;BMP180;5768;51.476;7.210;2023-12-04T12:18:21;99360.00;;;8.70
11424;BMP180;5768;51.476;7.210;2023-12-04T12:23:24;99337.00;;;8.70
11424;BMP180;5768;51.476;7.210;2023-12-04T12:28:28;99326.00;;;8.60
11424;BMP180;5768;51.476;7.210;2023-12-04T12:33:33;99326.00;;;8.60
11424;BMP180;5768;51.476;7.210;2023-12-04T12:38:36;99287.00;;;8.60
11424;BMP180;5768;51.476;7.210;2023-12-04T12:43:39;99275.00;;;8.60
11424;BMP180;5768;51.476;7.210;2023-12-04T12:48:44;99260.00;;;8.40
11424;BMP180;5768;51.476;7.210;2023-12-04T12:53:48;99278.00;;;8.40
11424;BMP180;5768;51.476;7.210;2023-12-04T12:58:50;99259.00;;;8.30
11424;BMP180;5768;51.476;7.210;2023-12-04T13:03:58;99258.00;;;8.20
11424;BMP180;5768;51.476;7.210;2023-12-04T13:09:00;99261.00;;;8.10
11424;BMP180;5768;51.476;7.210;2023-12-04T13:14:07;99259.00;;;8.00
11424;BMP180;5768;51.476;7.210;2023-12-04T13:19:11;99241.00;;;8.00
11424;BMP180;5768;51.476;7.210;2023-12-04T13:24:15;99224.00;;;8.10
11424;BMP180;5768;51.476;7.210;2023-12-04T13:29:18;99208.00;;;8.00
11424;BMP180;5768;51.476;7.210;2023-12-04T13:34:21;99205.00;;;8.00
11424;BMP180;5768;51.476;7.210;2023-12-04T13:39:27;99203.00;;;8.10
11424;BMP180;5768;51.476;7.210;2023-12-04T13:44:48;99190.00;;;8.30
11424;BMP180;5768;51.476;7.210;2023-12-04T13:49:54;99180.00;;;8.40
11424;BMP180;5768;51.476;7.210;2023-12-04T13:54:56;99188.00;;;8.50
11424;BMP180;5768;51.476;7.210;2023-12-04T13:59:59;99155.00;;;8.60
11424;BMP180;5768;51.476;7.210;2023-12-04T14:05:04;99164.00;;;8.60
11424;BMP180;5768;51.476;7.210;2023-12-04T14:10:08;99145.00;;;8.60
11424;BMP180;5768;51.476;7.210;2023-12-04T14:15:11;99143.00;;;8.60
11424;BMP180;5768;51.476;7.210;2023-12-04T14:20:15;99147.00;;;8.50
11424;BMP180;5768;51.476;7.210;2023-12-04T14:25:19;99130.00;;;8.40
11424;BMP180;5768;51.476;7.210;2023-12-04T14:30:21;99121.00;;;8.30
11424;BMP180;5768;51.476;7.210;2023-12-04T14:35:25;99122.00;;;8.20
11424;BMP180;5768;51.476;7.210;2023-12-04T14:40:28;99126.00;;;8.20
11424;BMP180;5768;51.476;7.210;2023-12-04T14:45:31;99114.00;;;8.10
11424;BMP180;5768;51.476;7.210;2023-12-04T14:50:36;99116.00;;;8.10
11424;BMP180;5768;51.476;7.210;2023-12-04T14:55:40;99106.00;;;8.10
11424;BMP180;5768;51.476;7.210;2023-12-04T15:01:00;99084.00;;;8.00
11424;BMP180;5768;51.476;7.210;2023-12-04T15:06:21;99096.00;;;8.00
11424;BMP180;5768;51.476;7.210;2023-12-04T15:11:40;99078.00;;;8.10
11424;BMP180;5768;51.476;7.210;2023-12-04T15:17:07;99071.00;;;8.10
11424;BMP180;5768;51.476;7.210;2023-12-04T15:22:20;99062.00;;;8.00
11424;BMP180;5768;51.476;7.210;2023-12-04T15:27:23;99059.00;;;8.00
11424;BMP180;5768;51.476;7.210;2023-12-04T15:32:25;99049.00;;;8.00
11424;BMP180;5768;51.476;7.210;2023-12-04T15:37:29;99041.00;;;7.90
11424;BMP180;5768;51.476;7.210;2023-12-04T15:42:31;99039.00;;;8.00
11424;BMP180;5768;51.476;7.210;2023-12-04T15:47:34;99044.00;;;8.00
11424;BMP180;5768;51.476;7.210;2023-12-04T15:52:37;99031.00;;;8.00
11424;BMP180;5768;51.476;7.210;2023-12-04T15:57:41;99032.00;;;8.00
11424;BMP180;5768;51.476;7.210;2023-12-04T16:02:44;99030.00;;;7.90
11424;BMP180;5768;51.476;7.210;2023-12-04T16:07:47;99018.00;;;7.90
11424;BMP180;5768;51.476;7.210;2023-12-04T16:12:50;99020.00;;;7.90
11424;BMP180;5768;51.476;7.210;2023-12-04T16:17:52;99009.00;;;7.90
11424;BMP180;5768;51.476;7.210;2023-12-04T16:22:56;99002.00;;;7.80
11424;BMP180;5768;51.476;7.210;2023-12-04T16:27:59;98996.00;;;7.80
11424;BMP180;5768;51.476;7.210;2023-12-04T16:33:01;98994.00;;;7.70
11424;BMP180;5768;51.476;7.210;2023-12-04T16:38:05;98982.00;;;7.80
11424;BMP180;5768;51.476;7.210;2023-12-04T16:43:08;98987.00;;;7.80
11424;BMP180;5768;51.476;7.210;2023-12-04T16:48:11;98969.00;;;7.70
11424;BMP180;5768;51.476;7.210;2023-12-04T16:53:14;98956.00;;;7.70
11424;BMP180;5768;51.476;7.210;2023-12-04T16:58:17;98965.00;;;7.60
11424;BMP180;5768;51.476;7.210;2023-12-04T17:03:22;98954.00;;;7.60
11424;BMP180;5768;51.476;7.210;2023-12-04T17:08:26;98948.00;;;7.60
11424;BMP180;5768;51.476;7.210;2023-12-04T17:13:29;98946.00;;;7.50
11424;BMP180;5768;51.476;7.210;2023-12-04T17:18:31;98943.00;;;7.60
11424;BMP180;5768;51.476;7.210;2023-12-04T17:23:35;98925.00;;;7.60
11424;BMP180;5768;51.476;7.210;2023-12-04T17:28:37;98930.00;;;7.50
11424;BMP180;5768;51.476;7.210;2023-12-04T17:33:40;98920.00;;;7.60
11424;BMP180;5768;51.476;7.210;2023-12-04T17:38:44;98916.00;;;7.60
11424;BMP180;5768;51.476;7.210;2023-12-04T17:43:48;98914.00;;;7.60
11424;BMP180;5768;51.476;7.210;2023-12-04T17:48:50;98916.00;;;7.50
11424;BMP180;5768;51.476;7.210;2023-12-04T17:53:54;98914.00;;;7.50
11424;BMP180;5768;51.476;7.210;2023-12-04T17:58:59;98913.00;;;7.60
11424;BMP180;5768;51.476;7.210;2023-12-04T18:04:02;98920.00;;;7.60
11424;BMP180;5768;51.476;7.210;2023-12-04T18:09:06;98915.00;;;7.60
11424;BMP180;5768;51.476;7.210;2023-12-04T18:14:08;98905.00;;;7.70
11424;BMP180;5768;51.476;7.210;2023-12-04T18:19:11;98892.00;;;7.70
11424;BMP180;5768;51.476;7.210;2023-12-04T18:24:14;98892.00;;;7.60
11424;BMP180;5768;51.476;7.210;2023-12-04T18:29:22;98885.00;;;7.60
11424;BMP180;5768;51.476;7.210;2023-12-04T18:34:25;98874.00;;;7.70
11424;BMP180;5768;51.476;7.210;2023-12-04T18:39:31;98868.00;;;7.70
11424;BMP180;5768;51.476;7.210;2023-12-04T18:44:35;98857.00;;;7.70
11424;BMP180;5768;51.476;7.210;2023-12-04T18:49:39;98862.00;;;7.70
11424;BMP180;5768;51.476;7.210;2023-12-04T18:54:42;98849.00;;;7.70
11424;BMP180;5768;51.476;7.210;2023-12-04T18:59:45;98847.00;;;7.80
11424;BMP180;5768;51.476;7.210;2023-12-04T19:04:48;98838.00;;;7.80
11424;BMP180;5768;51.476;7.210;2023-12-04T19:09:52;98829.00;;;7.90
11424;BMP180;5768;51.476;7.210;2023-12-04T19:14:57;98824.00;;;7.90
11424;BMP180;5768;51.476;7.210;2023-12-04T19:19:59;98827.00;;;8.00
11424;BMP180;5768;51.476;7.210;2023-12-04T19:25:05;98813.00;;;8.00
11424;BMP180;5768;51.476;7.210;2023-12-04T19:30:08;98815.00;;;8.00
11424;BMP180;5768;51.476;7.210;2023-12-04T19:35:10;98805.00;;;8.00
11424;BMP180;5768;51.476;7.210;2023-12-04T19:40:14;98802.00;;;8.00
11424;BMP180;5768;51.476;7.210;2023-12-04T19:45:17;98807.00;;;8.00
11424;BMP180;5768;51.476;7.210;2023-12-04T19:50:19;98792.00;;;8.00
11424;BMP180;5768;51.476;7.210;2023-12-04T19:55:24;98795.00;;;8.00
11424;BMP180;5768;51.476;7.210;2023-12-04T20:00:26;98780.00;;;8.10
11424;BMP180;5768;51.476;7.210;2023-12-04T20:05:30;98778.00;;;8.10
11424;BMP180;5768;51.476;7.210;2023-12-04T20:10:36;98769.00;;;8.10
11424;BMP180;5768;51.476;7.210;2023-12-04T20:15:39;98772.00;;;8.20
11424;BMP180;5768;51.476;7.210;2023-12-04T20:20:41;98765.00;;;8.30
11424;BMP180;5768;51.476;7.210;2023-12-04T20:25:46;98757.00;;;8.30
11424;BMP180;5768;51.476;7.210;2023-12-04T20:30:48;98756.00;;;8.30
11424;BMP180;5768;51.476;7.210;2023-12-04T20:35:51;98755.00;;;8.40
11424;BMP180;5768;51.476;7.210;2023-12-04T20:40:56;98740.00;;;8.40
11424;BMP180;5768;51.476;7.210;2023-12-04T20:45:59;98741.00;;;8.40
11424;BMP180;5768;51.476;7.210;2023-12-04T20:51:04;98741.00;;;8.50
11424;BMP180;5768;51.476;7.210;2023-12-04T20:56:17;98729.00;;;8.50
11424;BMP180;5768;51.476;7.210;2023-12-04T21:01:25;98725.00;;;8.60
11424;BMP180;5768;51.476;7.210;2023-12-04T21:06:28;98729.00;;;8.50
11424;BMP180;5768;51.476;7.210;2023-12-04T21:11:32;98726.00;;;8.60
11424;BMP180;5768;51.476;7.210;2023-12-04T21:16:36;98712.00;;;8.60
11424;BMP180;5768;51.476;7.210;2023-12-04T21:21:41;98709.00;;;8.60
11424;BMP180;5768;51.476;7.210;2023-12-04T21:26:46;98709.00;;;8.60
11424;BMP180;5768;51.476;7.210;2023-12-04T21:31:49;98711.00;;;8.60
11424;BMP180;5768;51.476;7.210;2023-12-04T21:36:52;98721.00;;;8.60
11424;BMP180;5768;51.476;7.210;2023-12-04T21:41:55;98710.00;;;8.50
11424;BMP180;5768;51.476;7.210;2023-12-04T21:46:57;98696.00;;;8.50
11424;BMP180;5768;51.476;7.210;2023-12-04T21:52:00;98688.00;;;8.60
11424;BMP180;5768;51.476;7.210;2023-12-04T21:57:04;98692.00;;;8.60
11424;BMP180;5768;51.476;7.210;2023-12-04T22:02:06;98688.00;;;8.50
11424;BMP180;5768;51.476;7.210;2023-12-04T22:07:09;98687.00;;;8.50
11424;BMP180;5768;51.476;7.210;2023-12-04T22:12:12;98675.00;;;8.60
11424;BMP180;5768;51.476;7.210;2023-12-04T22:17:15;98672.00;;;8.70
11424;BMP180;5768;51.476;7.210;2023-12-04T22:22:17;98657.00;;;8.70
11424;BMP180;5768;51.476;7.210;2023-12-04T22:27:22;98660.00;;;8.70
11424;BMP180;5768;51.476;7.210;2023-12-04T22:32:25;98650.00;;;8.70
11424;BMP180;5768;51.476;7.210;2023-12-04T22:37:27;98645.00;;;8.70
11424;BMP180;5768;51.476;7.210;2023-12-04T22:42:31;98647.00;;;8.60
11424;BMP180;5768;51.476;7.210;2023-12-04T22:47:33;98644.00;;;8.70
11424;BMP180;5768;51.476;7.210;2023-12-04T22:52:36;98641.00;;;8.60
11424;BMP180;5768;51.476;7.210;2023-12-04T22:57:43;98640.00;;;8.70
11424;BMP180;5768;51.476;7.210;2023-12-04T23:02:48;98628.00;;;8.70
11424;BMP180;5768;51.476;7.210;2023-12-04T23:07:50;98641.00;;;8.80
11424;BMP180;5768;51.476;7.210;2023-12-04T23:12:54;98639.00;;;8.80
11424;BMP180;5768;51.476;7.210;2023-12-04T23:17:58;98623.00;;;8.90
11424;BMP180;5768;51.476;7.210;2023-12-04T23:23:01;98634.00;;;8.90
11424;BMP180;5768;51.476;7.210;2023-12-04T23:28:05;98632.00;;;8.90
11424;BMP180;5768;51.476;7.210;2023-12-04T23:33:13;98637.00;;;8.90
11424;BMP180;5768;51.476;7.210;2023-12-04T23:38:15;98629.00;;;8.90
11424;BMP180;5768;51.476;7.210;2023-12-04T23:43:19;98624.00;;;8.90
11424;BMP180;5768;51.476;7.210;2023-12-04T23:48:21;98611.00;;;9.00
11424;BMP180;5768;51.476;7.210;2023-12-04T23:53:23;98616.00;;;9.00
11424;BMP180;5768;51.476;7.210;2023-12-04T23:58:30;98592.00;;;9.00
